Fairchild Air Force Base
KSKA : now visible

Airfield :











YOU CAN JOIN US ON...

 
LOGIN :

Register | Disclaimer

   EN    FR    IT 

 









Legend :    VFR   Marginal VFR   IFR   Intensive IFR   Very Intensive IFR
Visi :
Ceiling :
>= 8 km
>= 3000ft
5 to 8 km
1000 to 3000 ft
1500m to 5 km
500 to 1000 ft
800 to 1500m
200 to 500 ft
< 800m
< 200 ft
Symbols :   Thunderstorms  Fog  Heavy snow  Heavy precipitations  Wind > 20 kt







- Airport Elevation : 2461 ft


KSKA - Fairchild Air Force Base

CURRENT METAR :
  • 270658Z AUTO 03010KT 10SM CLR 13/04 A2990 RMK AO2 SLP123 T01320038 $

EXPIRED METARs :
  • 270558Z AUTO 03009KT 10SM CLR 14/05 A2989 RMK AO2 SLP119 T01350046 10172 20134 50004 $
  • 270458Z AUTO 03008KT 10SM CLR 14/06 A2990 RMK AO2 SLP123 T01410057 $

TAF TAF KSKA
Valid from the 27 at 03:00 until the 28 at 09:00 UTC


270300Z 2703/2809 03012KT 9999 FEW100 SCT200 QNH2988INS TX21/2722Z TN11/2712Z
KZSE FIR / North America



MET'MAP, your aeronautical weather chart ! - Copyright ORBIFLY December 2007 - Disclaimer

ORBIFLY MET'MAP TEAM :

Programming & Development : Alexandra Zaïnal
Concept & Development : Baudouin d'Aumeries
Co-Development & Prog : Marc-Olivier Méhu
Technical & hardware support : Manuel Goepfert

Contact : metmap@orbifly.com




SOURCES & CREDITS :

   NOAA       Earth
Advisory